Time;durP1;ratioP1;P1;durP2;ratioP2;P2;SDS_P1;SDS_P2;PMS_P1;PMS_P2;Temp;Humidity;BMP_temperature;BMP_pressure;BME280_temperature;BME280_humidity;BME280_pressure;Samples;Min_cycle;Max_cycle;Signal;HPM_P1;HPM_P2
2022/10/15 00:01:27;;;;;;;3.17;1.17;;;;;;;27.01;40.05;100449.91;4993389;28;20464;-53
2022/10/15 00:03:55;;;;;;;2.97;1.33;;;;;;;26.99;39.97;100452.53;4993387;28;20065;-55
2022/10/15 00:06:24;;;;;;;3.15;1.38;;;;;;;26.91;40.04;100436.81;4975864;28;20027;-54
2022/10/15 00:08:52;;;;;;;2.13;1.00;;;;;;;27.01;40.03;100442.88;4993188;28;20499;-56
2022/10/15 00:11:24;;;;;;;2.00;0.88;;;;;;;26.99;40.06;100442.00;4992970;28;20038;-54
2022/10/15 00:13:58;;;;;;;1.67;0.73;;;;;;;27.03;39.98;100432.34;4976239;28;20030;-55
2022/10/15 00:16:28;;;;;;;3.05;1.05;;;;;;;26.96;39.96;100435.03;4993325;28;20432;-55
2022/10/15 00:18:58;;;;;;;1.33;0.60;;;;;;;26.93;40.06;100434.19;4993158;28;20030;-55
2022/10/15 00:21:26;;;;;;;2.97;0.93;;;;;;;26.91;39.95;100441.22;4993047;28;20126;-55
2022/10/15 00:23:55;;;;;;;3.88;1.10;;;;;;;26.89;40.17;100435.06;4993324;28;20349;-55
2022/10/15 00:26:26;;;;;;;3.92;1.23;;;;;;;26.83;40.00;100436.00;4993021;28;20031;-54
2022/10/15 00:28:57;;;;;;;1.85;0.68;;;;;;;26.87;40.10;100450.00;4993370;28;20080;-55
2022/10/15 00:31:26;;;;;;;2.17;0.77;;;;;;;26.81;40.09;100448.28;4992970;28;20026;-55
2022/10/15 00:33:57;;;;;;;2.47;0.90;;;;;;;26.82;40.16;100447.41;4994050;28;20030;-55
2022/10/15 00:36:33;;;;;;;1.90;0.70;;;;;;;26.74;40.19;100438.66;4996993;28;20112;-54
2022/10/15 00:39:02;;;;;;;3.38;1.30;;;;;;;26.76;40.39;100455.31;4996530;28;20145;-55
2022/10/15 00:41:43;;;;;;;2.13;0.80;;;;;;;26.72;40.23;100454.47;4996445;28;20476;-54
2022/10/15 00:44:30;;;;;;;2.45;0.88;;;;;;;26.71;40.29;100457.97;4996321;28;20419;-56
2022/10/15 00:47:23;;;;;;;2.15;0.82;;;;;;;26.73;40.12;100457.94;4996411;28;20027;-54
2022/10/15 00:49:55;;;;;;;2.97;0.90;;;;;;;26.80;40.25;100451.81;4993371;28;20035;-55
2022/10/15 00:52:46;;;;;;;2.35;0.88;;;;;;;26.72;40.38;100467.63;4996354;28;20062;-55
2022/10/15 00:55:23;;;;;;;4.78;1.08;;;;;;;26.74;40.34;100463.22;4995936;28;20045;-56
2022/10/15 00:57:53;;;;;;;2.10;0.75;;;;;;;26.70;40.41;100474.66;4996263;28;20041;-54
2022/10/15 01:00:21;;;;;;;1.42;0.90;;;;;;;26.69;40.29;100479.03;4996313;28;20149;-55
2022/10/15 01:02:50;;;;;;;2.83;0.90;;;;;;;26.68;40.30;100481.66;4995771;28;20506;-55
2022/10/15 01:05:19;;;;;;;2.10;0.90;;;;;;;26.68;40.33;100474.66;4996041;28;20093;-56
2022/10/15 01:07:48;;;;;;;1.30;0.60;;;;;;;26.66;40.46;100470.28;4978819;28;20109;-54
2022/10/15 01:10:17;;;;;;;2.10;0.85;;;;;;;26.61;40.44;100472.94;4996057;28;20034;-56
2022/10/15 01:12:50;;;;;;;1.80;0.60;;;;;;;26.64;40.34;100466.81;4995516;28;20022;-55
2022/10/15 01:15:27;;;;;;;5.10;0.88;;;;;;;26.59;40.54;100469.44;4995884;28;20136;-56
2022/10/15 01:18:03;;;;;;;2.15;0.93;;;;;;;26.61;40.49;100466.81;4996189;28;20046;-55
2022/10/15 01:20:48;;;;;;;1.17;0.50;;;;;;;26.61;40.35;100467.69;4995924;28;20034;-54
2022/10/15 01:23:41;;;;;;;1.08;0.52;;;;;;;26.59;40.40;100471.22;4995849;28;20085;-55
2022/10/15 01:26:30;;;;;;;1.27;0.57;;;;;;;26.61;40.51;100475.56;4978454;28;20031;-54
2022/10/15 01:29:37;;;;;;;1.63;0.60;;;;;;;26.59;40.55;100482.59;4989038;28;20042;-54
2022/10/15 01:32:25;;;;;;;0.98;0.60;;;;;;;26.58;40.46;100486.09;4988953;28;20530;-52
2022/10/15 01:35:13;;;;;;;1.42;0.50;;;;;;;26.55;40.51;100491.41;4978293;28;20173;-54
2022/10/15 01:37:56;;;;;;;1.33;0.60;;;;;;;26.53;40.27;100493.19;4992569;28;20526;-55
2022/10/15 01:40:34;;;;;;;0.90;0.50;;;;;;;26.48;40.63;100494.94;4978504;28;20399;-53
2022/10/15 01:43:06;;;;;;;1.13;0.60;;;;;;;26.53;40.41;100494.03;4995607;28;20062;-55
2022/10/15 01:45:40;;;;;;;3.03;0.40;;;;;;;26.59;40.21;100497.53;4994534;28;20480;-54
2022/10/15 01:48:12;;;;;;;1.02;0.40;;;;;;;26.56;40.54;100501.03;4995477;28;20108;-55
2022/10/15 01:50:45;;;;;;;0.82;0.40;;;;;;;26.51;40.42;100497.56;4995851;28;20039;-54
2022/10/15 01:53:17;;;;;;;2.00;0.47;;;;;;;26.47;40.61;100507.22;4995167;28;20104;-55
2022/10/15 01:55:46;;;;;;;1.15;0.47;;;;;;;26.48;40.68;100501.06;4978700;28;20042;-55
2022/10/15 01:58:16;;;;;;;1.90;0.50;;;;;;;26.50;40.58;100512.44;4977769;28;20388;-55
2022/10/15 02:00:44;;;;;;;1.45;0.60;;;;;;;26.41;40.78;100504.63;4995359;28;20077;-55
2022/10/15 02:03:13;;;;;;;1.02;0.55;;;;;;;26.47;40.58;100509.88;4977993;28;20109;-55
2022/10/15 02:05:49;;;;;;;3.20;0.40;;;;;;;26.45;40.45;100513.34;4994945;28;20128;-55
2022/10/15 02:08:37;;;;;;;0.82;0.50;;;;;;;26.43;40.63;100517.75;4995074;28;20361;-55
2022/10/15 02:11:12;;;;;;;2.30;0.40;;;;;;;26.44;40.55;100517.75;4994832;28;20037;-55
2022/10/15 02:13:43;;;;;;;0.65;0.20;;;;;;;26.42;40.60;100519.53;4977691;28;20076;-55
2022/10/15 02:16:50;;;;;;;0.70;0.35;;;;;;;26.36;40.57;100520.44;4994828;28;20109;-52
2022/10/15 02:19:26;;;;;;;1.95;0.28;;;;;;;26.42;40.57;100527.41;4988418;28;20038;-55
2022/10/15 02:22:02;;;;;;;1.80;0.68;;;;;;;26.48;40.42;100532.63;4977644;28;20496;-54
2022/10/15 02:24:35;;;;;;;0.52;0.30;;;;;;;26.50;40.24;100524.75;4994569;28;20864;-55
2022/10/15 02:27:05;;;;;;;1.35;0.50;;;;;;;26.51;40.38;100535.25;4977626;28;20544;-54
2022/10/15 02:29:35;;;;;;;0.35;0.20;;;;;;;26.49;40.38;100537.00;4977193;28;20022;-55
2022/10/15 02:32:04;;;;;;;0.30;0.30;;;;;;;26.54;40.14;100537.00;4973842;28;20050;-55
2022/10/15 03:08:12;;;;;;;2.35;0.30;;;;;;;26.35;40.50;100544.97;4972813;28;20045;-56
2022/10/15 03:10:40;;;;;;;0.52;0.10;;;;;;;26.36;40.39;100545.84;4974485;28;20026;-55
2022/10/15 03:13:09;;;;;;;1.25;0.43;;;;;;;26.29;40.68;100549.38;4974671;28;20103;-55
2022/10/15 03:15:38;;;;;;;0.35;0.10;;;;;;;26.33;40.45;100548.47;4974654;28;20030;-55
2022/10/15 03:18:07;;;;;;;0.45;0.17;;;;;;;26.25;40.57;100537.97;4973730;28;20094;-55
2022/10/15 03:20:35;;;;;;;0.57;0.30;;;;;;;26.23;40.89;100545.88;4974481;28;20050;-55
2022/10/15 03:23:03;;;;;;;1.00;0.20;;;;;;;26.34;40.60;100556.38;4974433;28;20069;-54
2022/10/15 03:25:31;;;;;;;1.20;0.10;;;;;;;26.31;40.56;100550.25;4974507;28;20030;-54
2022/10/15 03:31:22;;;;;;;1.40;0.38;;;;;;;26.20;40.70;100548.50;4972447;28;20038;-50
2022/10/15 03:33:51;;;;;;;0.35;0.20;;;;;;;26.20;40.63;100547.66;4993690;28;20041;-54
2022/10/15 03:36:19;;;;;;;0.10;0.10;;;;;;;26.27;40.48;100551.13;4993898;28;20153;-55
2022/10/15 03:38:47;;;;;;;0.95;0.30;;;;;;;26.16;40.83;100541.50;4993524;28;20031;-55
2022/10/15 03:41:16;;;;;;;0.10;0.10;;;;;;;26.16;40.66;100548.53;4976161;28;20033;-54
2022/10/15 03:43:45;;;;;;;0.20;0.10;;;;;;;26.17;40.78;100545.88;4993163;28;20034;-55
2022/10/15 03:46:13;;;;;;;0.20;0.20;;;;;;;26.11;40.87;100543.28;4993834;28;20032;-54
2022/10/15 03:48:42;;;;;;;0.63;0.10;;;;;;;26.11;41.03;100543.28;4993634;28;20039;-55
2022/10/15 03:51:10;;;;;;;0.40;0.20;;;;;;;26.08;41.05;100552.00;4993362;28;20077;-54
2022/10/15 03:53:39;;;;;;;0.55;0.20;;;;;;;26.09;40.78;100547.66;4993634;28;20073;-54
2022/10/15 03:56:07;;;;;;;0.30;0.20;;;;;;;26.09;41.02;100550.28;4993340;28;20037;-55
2022/10/15 03:58:36;;;;;;;0.20;0.10;;;;;;;26.14;40.72;100551.19;4993638;28;20101;-54
2022/10/15 04:01:09;;;;;;;0.35;0.20;;;;;;;26.10;40.89;100552.03;4976242;28;20568;-55
2022/10/15 04:03:38;;;;;;;0.65;0.20;;;;;;;26.05;40.88;100548.53;4993614;28;20096;-51
2022/10/15 04:06:07;;;;;;;0.32;0.10;;;;;;;26.01;41.07;100555.56;4992978;28;20121;-55
2022/10/15 04:08:36;;;;;;;0.35;0.10;;;;;;;26.03;41.17;100559.06;4993579;28;20089;-55
2022/10/15 04:11:04;;;;;;;0.35;0.10;;;;;;;26.02;40.84;100557.31;4996959;28;20542;-54
2022/10/15 04:13:33;;;;;;;0.95;0.20;;;;;;;25.97;41.17;100556.44;4997333;28;20477;-55
2022/10/15 04:16:03;;;;;;;1.05;0.28;;;;;;;25.87;40.73;100531.91;4997494;28;20468;-54
2022/10/15 04:18:32;;;;;;;0.28;0.10;;;;;;;25.91;41.17;100559.06;4997068;28;20033;-52
2022/10/15 04:21:01;;;;;;;0.75;0.10;;;;;;;25.99;40.95;100567.81;4997023;28;20022;-52
2022/10/15 04:23:30;;;;;;;0.17;0.17;;;;;;;25.89;41.03;100566.97;4979528;28;20492;-55
2022/10/15 04:26:00;;;;;;;0.43;0.20;;;;;;;25.90;40.86;100571.34;4997069;28;20037;-53
2022/10/15 04:28:29;;;;;;;0.10;0.00;;;;;;;25.92;41.13;100574.84;4997009;28;20038;-53
2022/10/15 04:30:59;;;;;;;0.40;0.22;;;;;;;25.86;41.16;100572.22;4996794;28;20543;-54
2022/10/15 04:33:27;;;;;;;1.60;0.30;;;;;;;25.91;40.77;100575.72;4979092;28;20471;-51
2022/10/15 04:36:08;;;;;;;0.20;0.10;;;;;;;25.91;41.11;100575.72;4996904;28;20109;-54
2022/10/15 04:38:37;;;;;;;0.95;0.25;;;;;;;25.99;40.84;100587.94;4979545;28;20026;-54
2022/10/15 04:41:08;;;;;;;0.20;0.17;;;;;;;25.94;40.92;100572.19;4996663;28;20027;-55
2022/10/15 04:43:37;;;;;;;0.52;0.10;;;;;;;26.00;40.99;100590.59;4996960;28;20025;-54
2022/10/15 04:46:07;;;;;;;0.75;0.10;;;;;;;25.94;40.91;100591.47;4996834;28;20026;-54
2022/10/15 04:48:37;;;;;;;0.17;0.10;;;;;;;26.05;40.63;100591.47;4996195;28;20448;-54
2022/10/15 04:51:25;;;;;;;0.25;0.10;;;;;;;26.02;41.00;100587.94;4996551;28;20041;-54
2022/10/15 04:53:53;;;;;;;0.20;0.20;;;;;;;25.98;41.01;100591.50;4996474;28;20029;-55
2022/10/15 04:56:22;;;;;;;0.98;0.10;;;;;;;25.94;41.08;100595.84;4996480;28;20029;-53
2022/10/15 04:58:51;;;;;;;0.25;0.10;;;;;;;25.91;41.32;100591.47;4996274;28;20034;-54
2022/10/15 05:01:20;;;;;;;3.35;0.10;;;;;;;25.96;41.00;100601.97;4996179;28;20140;-55
2022/10/15 05:03:49;;;;;;;3.58;0.47;;;;;;;25.98;41.10;100591.50;5002892;28;20468;-54
2022/10/15 05:06:19;;;;;;;1.63;0.20;;;;;;;26.01;40.84;100588.81;5015355;28;20083;-54
2022/10/15 05:08:49;;;;;;;0.55;0.30;;;;;;;25.98;40.87;100592.34;5015227;28;20033;-52
2022/10/15 05:11:21;;;;;;;0.60;0.22;;;;;;;26.04;40.59;100592.34;5015862;28;20041;-55
2022/10/15 05:13:49;;;;;;;1.75;0.50;;;;;;;26.07;40.81;100594.94;5015667;28;20033;-60
2022/10/15 05:16:20;;;;;;;0.40;0.20;;;;;;;26.14;40.51;100593.25;5015635;28;20021;-51
2022/10/15 05:18:50;;;;;;;1.02;0.25;;;;;;;26.16;40.46;100590.59;4998308;28;20030;-54
2022/10/15 05:21:19;;;;;;;1.33;0.30;;;;;;;26.14;40.58;100598.50;4997797;28;20104;-55
2022/10/15 05:23:49;;;;;;;1.08;0.20;;;;;;;26.11;40.39;100584.44;5014817;28;20025;-56
2022/10/15 05:26:20;;;;;;;0.63;0.20;;;;;;;26.13;40.79;100595.84;5015776;28;20033;-55
2022/10/15 05:28:48;;;;;;;2.40;0.20;;;;;;;26.13;40.78;100595.84;4997989;28;20038;-54
2022/10/15 05:31:21;;;;;;;1.05;0.25;;;;;;;26.06;40.90;100595.81;5014808;28;20033;-55
2022/10/15 05:33:51;;;;;;;0.60;0.10;;;;;;;26.11;40.86;100600.19;5015201;28;20042;-55
2022/10/15 05:36:23;;;;;;;2.60;0.50;;;;;;;26.06;40.86;100598.44;5015341;28;20040;-55
2022/10/15 05:38:55;;;;;;;1.77;0.65;;;;;;;26.12;40.64;100610.78;5015266;28;20483;-55
2022/10/15 05:41:24;;;;;;;1.27;0.30;;;;;;;26.18;40.40;100609.88;5014833;28;20116;-54
2022/10/15 05:43:54;;;;;;;3.58;0.30;;;;;;;26.15;40.72;100612.50;4997814;28;20021;-55
2022/10/15 05:46:23;;;;;;;2.22;0.47;;;;;;;26.14;40.77;100606.38;5014930;28;20057;-55
2022/10/15 05:48:53;;;;;;;0.65;0.10;;;;;;;26.16;40.67;100599.34;5014941;28;20048;-55
2022/10/15 05:51:22;;;;;;;5.07;0.30;;;;;;;26.14;40.45;100598.50;5014425;28;20041;-53
2022/10/15 05:53:53;;;;;;;1.30;0.32;;;;;;;26.11;40.59;100600.19;5014865;28;20030;-55
2022/10/15 05:56:21;;;;;;;0.65;0.17;;;;;;;26.14;40.77;100605.50;5014973;28;20045;-53
2022/10/15 05:58:51;;;;;;;1.75;0.40;;;;;;;26.18;41.03;100612.50;5014665;28;20026;-55
2022/10/15 06:01:19;;;;;;;2.17;0.30;;;;;;;26.17;40.56;100614.25;5014649;28;20022;-56
2022/10/15 06:03:48;;;;;;;3.20;0.50;;;;;;;26.16;40.55;100611.63;5014476;28;20036;-54
2022/10/15 06:06:18;;;;;;;2.00;0.20;;;;;;;26.16;40.60;100624.78;5014497;28;20022;-55
2022/10/15 06:08:47;;;;;;;5.10;1.15;;;;;;;26.21;40.57;100623.88;5014883;28;20068;-55
2022/10/15 06:11:16;;;;;;;1.52;0.30;;;;;;;26.18;40.76;100626.50;5014667;28;20484;-53
2022/10/15 06:13:47;;;;;;;1.80;0.35;;;;;;;26.22;40.61;100627.41;5014347;28;20376;-54
2022/10/15 06:16:17;;;;;;;5.05;0.40;;;;;;;26.21;40.63;100626.50;5014554;28;20037;-54
2022/10/15 06:18:45;;;;;;;2.75;0.57;;;;;;;26.20;40.44;100622.13;5014256;28;20056;-55
2022/10/15 06:21:14;;;;;;;1.42;0.40;;;;;;;26.21;40.55;100615.13;5014027;28;20095;-50
2022/10/15 06:23:42;;;;;;;0.63;0.30;;;;;;;26.26;40.40;100626.50;5014423;28;20026;-54
2022/10/15 06:26:11;;;;;;;3.17;0.45;;;;;;;26.23;40.47;100621.25;5014342;28;20034;-55
2022/10/15 06:28:40;;;;;;;1.23;0.30;;;;;;;26.21;40.45;100623.88;5014340;28;20030;-55
2022/10/15 06:31:09;;;;;;;2.63;0.68;;;;;;;26.22;40.70;100624.78;5013625;28;20029;-55
2022/10/15 06:33:38;;;;;;;1.63;0.40;;;;;;;26.19;40.69;100636.16;5013584;28;20099;-54
2022/10/15 06:36:09;;;;;;;2.95;0.30;;;;;;;26.16;40.83;100632.66;5014263;28;20476;-52
2022/10/15 06:38:38;;;;;;;2.13;0.40;;;;;;;26.21;40.53;100642.28;5014077;28;20034;-56
2022/10/15 06:41:07;;;;;;;3.13;0.35;;;;;;;26.17;40.57;100643.16;5013681;28;20073;-55
2022/10/15 06:43:36;;;;;;;4.75;0.50;;;;;;;26.20;40.51;100639.69;5014092;28;20026;-55
2022/10/15 06:46:05;;;;;;;2.00;0.50;;;;;;;26.20;40.58;100640.53;5013958;28;20037;-55
2022/10/15 06:48:34;;;;;;;1.27;0.28;;;;;;;26.16;40.83;100638.78;5014065;28;20076;-55
2022/10/15 06:51:02;;;;;;;0.85;0.40;;;;;;;26.17;40.70;100640.53;5013510;28;20033;-55
2022/10/15 06:53:31;;;;;;;5.18;0.55;;;;;;;26.20;40.71;100640.53;5014152;28;20112;-54
2022/10/15 06:56:02;;;;;;;1.73;0.38;;;;;;;26.17;40.81;100648.41;5013768;28;20365;-58
2022/10/15 06:58:30;;;;;;;1.50;0.40;;;;;;;26.22;40.59;100644.03;5013739;28;20113;-58
2022/10/15 07:01:03;;;;;;;2.47;0.85;;;;;;;26.17;40.71;100630.00;5013850;28;20026;-58
2022/10/15 07:03:32;;;;;;;6.45;0.47;;;;;;;26.15;40.88;100636.16;4996077;28;20029;-57
2022/10/15 07:06:03;;;;;;;1.35;0.30;;;;;;;26.18;40.83;100639.66;5013488;28;20026;-57
2022/10/15 07:08:31;;;;;;;4.28;0.63;;;;;;;26.20;40.81;100639.69;5013629;28;20101;-58
2022/10/15 07:11:02;;;;;;;2.00;0.50;;;;;;;26.17;40.66;100634.41;5013488;28;20106;-57
2022/10/15 07:13:31;;;;;;;3.17;0.50;;;;;;;26.15;40.72;100633.53;5013720;28;20121;-58
2022/10/15 07:16:02;;;;;;;7.25;0.50;;;;;;;26.12;40.88;100639.69;5013458;28;20037;-55
2022/10/15 07:18:31;;;;;;;1.83;0.40;;;;;;;26.13;40.83;100641.44;5013072;28;20114;-54
2022/10/15 07:21:00;;;;;;;2.22;0.50;;;;;;;26.09;40.85;100642.28;5013575;28;20033;-49
2022/10/15 07:23:28;;;;;;;0.85;0.30;;;;;;;26.12;40.75;100642.31;4995863;28;20088;-56
2022/10/15 07:25:58;;;;;;;2.05;0.55;;;;;;;26.07;40.99;100649.28;5012605;28;20026;-55
2022/10/15 07:28:27;;;;;;;1.42;0.50;;;;;;;26.08;40.83;100646.66;5013093;28;20026;-55
2022/10/15 07:30:59;;;;;;;4.05;0.77;;;;;;;26.15;40.66;100659.81;5012733;28;20510;-56
2022/10/15 07:33:27;;;;;;;2.10;0.47;;;;;;;26.15;40.70;100665.09;5012901;28;20049;-56
2022/10/15 07:35:56;;;;;;;5.95;0.90;;;;;;;26.21;40.49;100668.59;5013230;28;20022;-57
2022/10/15 07:38:24;;;;;;;2.00;0.50;;;;;;;26.19;40.60;100680.84;5013120;28;20037;-56
2022/10/15 07:40:53;;;;;;;3.03;0.30;;;;;;;26.17;40.51;100679.97;5013127;28;20021;-57
2022/10/15 07:43:21;;;;;;;1.92;0.40;;;;;;;26.21;40.61;100681.72;4997826;28;20045;-56
2022/10/15 07:45:50;;;;;;;1.60;0.65;;;;;;;26.16;40.83;100687.88;5017238;28;20479;-56
2022/10/15 07:48:18;;;;;;;3.97;0.47;;;;;;;26.18;40.75;100683.50;5017080;28;20507;-55
2022/10/15 07:50:47;;;;;;;2.38;0.45;;;;;;;26.17;40.76;100689.63;5017088;28;20028;-58
2022/10/15 07:53:15;;;;;;;2.97;0.57;;;;;;;26.12;40.92;100691.38;5017339;28;20526;-56
2022/10/15 07:55:44;;;;;;;1.70;0.40;;;;;;;26.12;40.67;100697.53;5017180;28;20540;-57
2022/10/15 07:58:11;;;;;;;3.85;0.80;;;;;;;26.17;40.70;100687.00;5011742;28;20024;-54
2022/10/15 08:00:39;;;;;;;3.58;0.32;;;;;;;26.27;40.53;100699.25;4995053;28;20038;-57
2022/10/15 08:03:07;;;;;;;2.63;0.50;;;;;;;26.30;40.38;100683.47;4996373;28;20496;-57
2022/10/15 08:05:36;;;;;;;3.25;0.57;;;;;;;26.34;40.39;100692.22;4996308;28;20046;-57
2022/10/15 08:08:05;;;;;;;1.35;0.40;;;;;;;26.41;40.27;100690.47;4996323;28;20050;-58
2022/10/15 08:10:33;;;;;;;2.28;0.60;;;;;;;26.39;40.36;100682.59;4979429;28;20480;-57
2022/10/15 08:13:01;;;;;;;1.75;0.60;;;;;;;26.44;40.28;100699.25;4992569;28;20034;-57
2022/10/15 08:15:30;;;;;;;1.95;0.50;;;;;;;26.40;40.42;100686.97;4996122;28;20027;-57
2022/10/15 08:18:00;;;;;;;1.65;0.50;;;;;;;26.45;40.52;100693.09;4995794;28;20072;-56
2022/10/15 08:20:28;;;;;;;5.75;0.70;;;;;;;26.47;40.38;100698.34;4996177;28;20045;-57
2022/10/15 08:22:57;;;;;;;1.85;0.60;;;;;;;26.45;40.55;100703.63;4978720;28;20022;-57
2022/10/15 08:25:25;;;;;;;2.47;0.50;;;;;;;26.50;40.40;100700.97;4980958;28;20544;-57
2022/10/15 08:27:55;;;;;;;4.47;0.68;;;;;;;26.49;40.35;100691.34;4995787;28;20113;-55
2022/10/15 08:30:23;;;;;;;1.83;0.57;;;;;;;26.45;40.49;100692.22;4978481;28;20061;-56
2022/10/15 08:32:52;;;;;;;1.52;0.35;;;;;;;26.53;40.54;100707.09;4995615;28;20125;-55
2022/10/15 08:35:21;;;;;;;1.70;0.63;;;;;;;26.52;40.74;100707.13;4993467;28;20048;-56
2022/10/15 08:37:49;;;;;;;2.78;0.60;;;;;;;26.52;40.59;100701.84;4994643;28;20077;-56
2022/10/15 08:40:17;;;;;;;4.07;0.82;;;;;;;26.60;40.64;100710.59;4994433;28;20026;-56
2022/10/15 08:42:46;;;;;;;3.47;0.60;;;;;;;26.58;40.63;100708.84;4977245;28;20510;-55
2022/10/15 08:45:23;;;;;;;5.78;0.70;;;;;;;26.66;40.68;100710.59;4975618;28;20120;-57
2022/10/15 08:47:58;;;;;;;1.33;0.40;;;;;;;26.67;40.64;100707.09;4993808;28;20480;-56
2022/10/15 08:50:47;;;;;;;3.15;0.32;;;;;;;26.69;40.57;100707.97;4994359;28;20034;-56
2022/10/15 08:53:21;;;;;;;1.00;0.30;;;;;;;26.77;40.59;100715.84;4995405;28;20045;-56
2022/10/15 08:55:52;;;;;;;2.45;0.55;;;;;;;26.77;40.62;100715.84;4994525;28;20026;-56
2022/10/15 08:58:20;;;;;;;0.43;0.28;;;;;;;26.79;40.48;100710.56;4995168;28;20428;-57
2022/10/15 09:00:54;;;;;;;1.27;0.50;;;;;;;26.77;40.80;100721.09;4999343;28;20022;-55
2022/10/15 09:03:49;;;;;;;1.35;0.47;;;;;;;26.80;40.56;100718.50;4978528;28;20033;-57
2022/10/15 09:06:22;;;;;;;1.40;0.57;;;;;;;26.77;40.52;100721.09;4977017;28;20030;-57
2022/10/15 09:09:13;;;;;;;2.00;0.50;;;;;;;26.80;40.63;100728.13;4995267;28;20037;-57
2022/10/15 09:12:09;;;;;;;1.80;0.45;;;;;;;26.78;40.64;100725.47;4989181;28;20046;-57
2022/10/15 09:14:40;;;;;;;2.78;0.50;;;;;;;26.77;40.80;100731.63;4993014;28;20029;-57
2022/10/15 09:17:18;;;;;;;2.65;0.55;;;;;;;26.81;40.52;100730.75;4995025;28;20034;-52
2022/10/15 09:19:50;;;;;;;2.47;0.80;;;;;;;26.80;40.33;100728.13;4965624;28;20026;-56
2022/10/15 09:22:19;;;;;;;1.55;0.40;;;;;;;26.83;40.66;100723.72;4977943;28;20030;-56
2022/10/15 09:24:47;;;;;;;1.65;0.60;;;;;;;26.84;40.57;100722.84;4995273;28;20027;-54
2022/10/15 09:27:40;;;;;;;2.33;0.50;;;;;;;26.86;40.42;100722.84;4995154;28;20023;-55
2022/10/15 09:30:33;;;;;;;2.05;0.40;;;;;;;26.81;40.73;100728.09;4994661;28;20031;-58
2022/10/15 09:33:25;;;;;;;2.28;0.60;;;;;;;26.78;40.68;100733.38;4976242;28;20101;-56
2022/10/15 09:36:00;;;;;;;1.73;0.30;;;;;;;26.85;40.58;100726.38;4987671;28;20074;-55
2022/10/15 09:38:34;;;;;;;2.20;0.85;;;;;;;26.82;40.63;100732.50;4977438;28;20449;-56
2022/10/15 09:41:06;;;;;;;2.67;0.40;;;;;;;26.88;40.54;100736.00;4994309;28;20041;-57
2022/10/15 09:43:36;;;;;;;2.85;0.70;;;;;;;26.83;40.57;100738.66;4994425;28;20272;-55
2022/10/15 09:46:04;;;;;;;8.57;0.93;;;;;;;26.87;40.60;100735.13;4980998;28;20084;-56
2022/10/15 09:48:35;;;;;;;2.60;0.95;;;;;;;26.76;40.40;100713.19;4981431;28;20018;-56
2022/10/15 09:51:12;;;;;;;3.63;0.60;;;;;;;26.86;40.45;100736.03;4980749;28;20117;-55
2022/10/15 09:53:47;;;;;;;3.35;0.60;;;;;;;26.87;40.46;100734.25;4977430;28;20037;-57
2022/10/15 09:56:19;;;;;;;3.47;0.75;;;;;;;26.86;40.07;100733.38;4997444;28;20031;-56
2022/10/15 09:58:48;;;;;;;3.30;0.47;;;;;;;26.90;40.18;100736.88;4977288;28;20507;-56
2022/10/15 10:01:20;;;;;;;1.70;0.50;;;;;;;26.86;40.14;100725.50;4993811;28;20498;-56
2022/10/15 10:03:54;;;;;;;3.65;0.73;;;;;;;26.85;40.19;100731.63;4994325;28;20030;-57
2022/10/15 10:06:23;;;;;;;;;;;;;;;26.91;40.00;100742.13;4994511;28;20022;-54
2022/10/15 10:08:55;;;;;;;2.47;0.50;;;;;;;26.94;39.96;100739.50;4994448;28;20012;-56
2022/10/15 10:11:25;;;;;;;1.80;0.47;;;;;;;26.96;39.93;100744.75;4998083;28;20492;-57
2022/10/15 10:13:56;;;;;;;3.90;1.08;;;;;;;26.91;40.28;100743.91;4994084;28;20507;-56
2022/10/15 10:16:25;;;;;;;2.20;0.90;;;;;;;26.93;39.91;100742.13;4993340;28;20049;-57
2022/10/15 10:19:13;;;;;;;1.08;0.32;;;;;;;26.86;40.08;100736.03;4996070;28;20027;-56
2022/10/15 10:21:44;;;;;;;2.22;0.75;;;;;;;26.91;39.80;100736.00;4994711;28;20018;-57
2022/10/15 10:24:33;;;;;;;3.70;0.70;;;;;;;26.91;39.86;100738.63;4997988;28;20362;-55
2022/10/15 10:27:01;;;;;;;5.80;1.08;;;;;;;26.94;39.87;100743.88;4996711;28;20022;-55
2022/10/15 10:29:29;;;;;;;2.42;0.55;;;;;;;26.94;39.71;100728.97;4976368;28;20027;-55
2022/10/15 10:31:56;;;;;;;4.60;0.77;;;;;;;26.99;39.57;100732.47;4992688;28;20149;-55
2022/10/15 10:34:29;;;;;;;6.10;1.08;;;;;;;26.96;39.79;100728.97;4993828;28;20080;-54
2022/10/15 10:36:56;;;;;;;2.80;0.50;;;;;;;26.96;39.83;100736.88;4994009;28;20022;-52
2022/10/15 10:39:29;;;;;;;6.35;0.73;;;;;;;26.91;39.86;100736.00;4979204;28;20030;-56
2022/10/15 10:42:03;;;;;;;4.35;0.63;;;;;;;26.94;39.65;100733.34;5001227;28;20041;-57
2022/10/15 10:44:33;;;;;;;3.97;0.90;;;;;;;26.93;39.79;100731.59;4993654;28;20027;-56
2022/10/15 10:47:02;;;;;;;3.85;0.70;;;;;;;26.93;39.85;100731.59;4993312;28;20030;-57
2022/10/15 10:49:34;;;;;;;2.65;0.40;;;;;;;26.76;39.92;100710.56;4997349;28;20034;-57
2022/10/15 10:52:02;;;;;;;5.38;0.93;;;;;;;26.94;39.58;100728.09;5001223;28;20033;-58
2022/10/15 10:54:30;;;;;;;5.30;0.82;;;;;;;26.98;39.91;100732.44;4998132;28;20061;-54
2022/10/15 10:57:00;;;;;;;2.63;0.45;;;;;;;26.97;39.62;100731.59;4996081;28;20089;-56
2022/10/15 10:59:33;;;;;;;2.70;0.63;;;;;;;26.98;39.80;100735.06;4984429;28;20113;-56
2022/10/15 11:02:03;;;;;;;5.18;0.80;;;;;;;27.02;39.73;100734.19;4975641;28;20030;-57
2022/10/15 11:04:33;;;;;;;1.63;0.70;;;;;;;27.00;39.94;100733.31;4993599;28;20472;-57
2022/10/15 11:07:05;;;;;;;3.10;0.73;;;;;;;26.96;39.89;100731.59;4993743;28;20121;-57
2022/10/15 11:10:00;;;;;;;2.85;0.60;;;;;;;26.98;39.94;100733.34;4995069;28;20054;-57
2022/10/15 11:12:32;;;;;;;5.38;1.08;;;;;;;27.02;39.91;100728.94;4997052;28;20542;-56
2022/10/15 11:15:16;;;;;;;4.65;0.70;;;;;;;26.97;39.95;100736.00;4993321;28;20034;-57
2022/10/15 11:18:02;;;;;;;2.17;0.63;;;;;;;26.98;39.88;100732.44;4990746;28;20026;-56
2022/10/15 11:21:09;;;;;;;2.75;0.70;;;;;;;27.04;39.86;100732.44;4989816;28;20038;-57
2022/10/15 11:24:05;;;;;;;3.85;0.70;;;;;;;27.03;39.82;100738.59;4981779;28;20042;-54
2022/10/15 11:26:47;;;;;;;2.03;0.70;;;;;;;26.96;39.86;100724.56;4988501;28;20038;-57
2022/10/15 11:29:21;;;;;;;2.78;0.70;;;;;;;27.00;39.94;100725.41;4978228;28;20077;-56
2022/10/15 11:32:17;;;;;;;4.33;1.00;;;;;;;27.02;40.06;100734.19;4995988;28;20046;-57
2022/10/15 11:35:17;;;;;;;4.53;1.05;;;;;;;27.00;40.16;100733.31;4990993;28;20096;-56
2022/10/15 11:37:54;;;;;;;4.40;1.40;;;;;;;27.06;39.90;100730.69;4972768;28;20038;-57
2022/10/15 11:40:36;;;;;;;5.32;1.10;;;;;;;27.03;40.01;100725.41;4989855;28;20538;-57
2022/10/15 11:43:30;;;;;;;5.43;0.98;;;;;;;27.02;40.10;100728.06;4990499;28;20392;-55
2022/10/15 11:46:08;;;;;;;5.57;1.00;;;;;;;27.02;39.99;100725.44;4988591;28;20050;-56
2022/10/15 11:48:50;;;;;;;3.55;1.20;;;;;;;27.00;40.23;100720.16;4972822;28;20391;-58
2022/10/15 11:51:19;;;;;;;2.72;0.80;;;;;;;27.02;40.05;100720.19;4974503;28;20093;-56
2022/10/15 11:53:57;;;;;;;3.17;0.90;;;;;;;26.98;40.37;100714.91;4992195;28;20476;-58
2022/10/15 11:56:41;;;;;;;3.13;1.05;;;;;;;26.99;40.23;100715.78;4992706;28;20141;-57
2022/10/15 11:59:29;;;;;;;2.77;1.10;;;;;;;27.02;40.09;100715.75;4975481;28;20065;-57
2022/10/15 12:02:19;;;;;;;5.35;1.20;;;;;;;26.98;40.21;100711.38;4984472;28;20039;-55
2022/10/15 12:04:54;;;;;;;2.78;0.80;;;;;;;26.99;40.06;100698.25;4992404;28;20061;-58
2022/10/15 12:07:28;;;;;;;3.28;0.80;;;;;;;27.02;40.15;100710.50;4973842;28;20470;-54
2022/10/15 12:10:00;;;;;;;5.53;1.05;;;;;;;27.03;40.20;100708.75;4971922;28;20035;-56
2022/10/15 12:13:00;;;;;;;4.50;1.60;;;;;;;26.99;40.13;100706.13;4975153;28;20061;-56
2022/10/15 12:15:51;;;;;;;4.25;0.90;;;;;;;27.05;40.11;100702.59;4983573;28;20038;-57
2022/10/15 12:18:57;;;;;;;5.05;1.10;;;;;;;27.02;40.18;100697.34;4986091;28;20038;-55
2022/10/15 12:21:55;;;;;;;3.50;0.82;;;;;;;27.06;40.08;100698.19;4988409;28;20049;-56
2022/10/15 12:24:44;;;;;;;5.72;1.02;;;;;;;27.03;40.12;100698.22;4992170;28;20081;-57
2022/10/15 12:27:21;;;;;;;3.60;0.95;;;;;;;27.02;40.05;100699.13;4987434;28;20407;-57
2022/10/15 12:29:52;;;;;;;3.33;0.70;;;;;;;27.05;40.13;100701.75;4975610;28;20118;-56